createdAt,value
2022-08-21T00:00:42.375Z,18.95
2022-08-21T00:03:47.563Z,18.95
2022-08-21T00:06:54.052Z,18.91
2022-08-21T00:09:56.866Z,18.87
2022-08-21T00:13:00.761Z,18.83
2022-08-21T00:16:04.570Z,18.81
2022-08-21T00:19:07.897Z,18.72
2022-08-21T00:22:11.093Z,18.70
2022-08-21T00:25:15.450Z,18.63
2022-08-21T00:28:18.994Z,18.67
2022-08-21T00:31:21.542Z,18.59
2022-08-21T00:34:24.316Z,18.57
2022-08-21T00:37:26.881Z,18.60
2022-08-21T00:40:46.430Z,18.55
2022-08-21T00:43:49.143Z,18.56
2022-08-21T00:46:51.936Z,18.60
2022-08-21T00:49:54.580Z,18.53
2022-08-21T00:52:58.353Z,18.50
2022-08-21T00:56:03.400Z,18.46
2022-08-21T00:59:07.346Z,18.41
2022-08-21T01:02:10.312Z,18.41
2022-08-21T01:05:13.822Z,18.41
2022-08-21T01:08:18.055Z,18.38
2022-08-21T01:11:21.416Z,18.46
2022-08-21T01:14:24.008Z,18.42
2022-08-21T01:17:27.812Z,18.47
2022-08-21T01:20:32.189Z,18.41
2022-08-21T01:23:44.024Z,18.45
2022-08-21T01:26:47.139Z,18.53
2022-08-21T01:29:57.787Z,18.42
2022-08-21T01:33:00.454Z,18.43
2022-08-21T01:36:04.099Z,18.42
2022-08-21T01:39:07.340Z,18.39
2022-08-21T01:42:10.413Z,18.43
2022-08-21T01:45:14.718Z,18.36
2022-08-21T01:48:17.763Z,18.39
2022-08-21T01:51:20.382Z,18.38
2022-08-21T01:54:23.257Z,18.38
2022-08-21T01:57:26.575Z,18.48
2022-08-21T02:00:29.367Z,18.40
2022-08-21T02:03:35.577Z,18.47
2022-08-21T02:06:39.599Z,18.35
2022-08-21T02:09:43.439Z,18.32
2022-08-21T02:12:46.722Z,18.35
2022-08-21T02:15:49.601Z,18.40
2022-08-21T02:18:52.681Z,18.31
2022-08-21T02:21:56.253Z,18.27
2022-08-21T02:24:59.072Z,18.32
2022-08-21T02:28:06.049Z,18.32
2022-08-21T02:31:09.208Z,18.33
2022-08-21T02:34:11.730Z,18.23
2022-08-21T02:37:14.418Z,18.25
2022-08-21T02:40:19.329Z,18.21
2022-08-21T02:43:23.800Z,18.20
2022-08-21T02:46:26.333Z,18.13
2022-08-21T02:49:29.316Z,18.12
2022-08-21T02:52:31.840Z,18.11
2022-08-21T02:55:36.334Z,18.11
2022-08-21T02:58:46.977Z,18.08
2022-08-21T03:01:49.984Z,18.05
2022-08-21T03:04:52.485Z,18.06
2022-08-21T03:07:55.870Z,18.05
2022-08-21T03:11:02.017Z,18.11
2022-08-21T03:14:06.300Z,18.12
2022-08-21T03:17:08.818Z,18.11
2022-08-21T03:20:13.569Z,18.10
2022-08-21T03:23:18.411Z,18.07
2022-08-21T03:26:21.796Z,18.10
2022-08-21T03:29:25.509Z,18.12
2022-08-21T03:32:28.610Z,18.09
2022-08-21T03:35:31.397Z,18.10
2022-08-21T03:38:36.161Z,18.08
2022-08-21T03:41:38.686Z,18.09
2022-08-21T03:44:41.515Z,18.09
2022-08-21T03:48:12.375Z,18.12
2022-08-21T03:51:16.516Z,18.14
2022-08-21T03:54:19.506Z,18.15
2022-08-21T03:57:22.526Z,18.17
2022-08-21T04:00:26.028Z,18.21
2022-08-21T04:03:30.541Z,18.14
2022-08-21T04:06:37.663Z,18.27
2022-08-21T04:09:40.762Z,18.18
2022-08-21T04:12:43.451Z,18.19
2022-08-21T04:15:46.272Z,18.21
2022-08-21T04:18:48.831Z,18.20
2022-08-21T04:21:52.636Z,18.30
2022-08-21T04:24:55.297Z,18.22
2022-08-21T04:27:58.224Z,18.27
2022-08-21T04:31:00.792Z,18.29
2022-08-21T04:34:05.686Z,18.40
2022-08-21T04:37:08.223Z,18.40
2022-08-21T04:40:13.309Z,18.39
2022-08-21T04:43:15.934Z,18.40
2022-08-21T04:46:19.947Z,18.38
2022-08-21T04:49:22.632Z,18.45
2022-08-21T04:52:26.069Z,18.41
2022-08-21T04:55:29.415Z,18.55
2022-08-21T04:58:34.527Z,18.55
2022-08-21T05:01:38.849Z,18.69
2022-08-21T05:04:47.157Z,18.71
2022-08-21T05:07:50.210Z,18.59
2022-08-21T05:10:56.992Z,18.69
2022-08-21T05:14:02.470Z,18.72
2022-08-21T05:17:05.811Z,18.61
2022-08-21T05:20:11.781Z,18.69
2022-08-21T05:23:15.381Z,18.54
2022-08-21T05:26:18.421Z,18.68
2022-08-21T05:29:21.866Z,18.61
2022-08-21T05:32:25.779Z,18.72
2022-08-21T05:35:31.326Z,18.65
2022-08-21T05:38:33.845Z,18.72
2022-08-21T05:41:36.710Z,18.66
2022-08-21T05:44:39.170Z,18.60
2022-08-21T05:47:41.864Z,18.69
2022-08-21T05:50:45.448Z,18.70
2022-08-21T05:53:48.833Z,18.86
2022-08-21T05:56:52.725Z,18.88
2022-08-21T05:59:56.240Z,18.90
2022-08-21T06:02:59.522Z,18.82
2022-08-21T06:06:03.452Z,18.94
2022-08-21T06:09:06.896Z,18.94
2022-08-21T06:12:12.453Z,18.92
2022-08-21T06:15:15.027Z,18.89
2022-08-21T06:18:18.469Z,19.02
2022-08-21T06:21:21.160Z,19.12
2022-08-21T06:24:24.133Z,19.10
2022-08-21T06:27:26.851Z,18.93
2022-08-21T06:30:29.882Z,18.92
2022-08-21T06:33:32.932Z,19.06
2022-08-21T06:36:35.820Z,19.09
2022-08-21T06:39:42.020Z,19.15
2022-08-21T06:42:48.110Z,19.12
2022-08-21T06:45:52.143Z,19.26
2022-08-21T06:48:55.694Z,19.47
2022-08-21T06:51:58.443Z,19.48
2022-08-21T06:55:01.319Z,19.65
2022-08-21T06:58:05.121Z,19.80
2022-08-21T07:01:08.305Z,19.80
2022-08-21T07:04:11.342Z,19.65
2022-08-21T07:07:14.177Z,19.61
2022-08-21T07:10:22.275Z,19.65
2022-08-21T07:13:26.115Z,19.81
2022-08-21T07:16:28.758Z,19.76
2022-08-21T07:19:31.613Z,20.10
2022-08-21T07:22:36.895Z,20.00
2022-08-21T07:25:39.807Z,20.30
2022-08-21T07:28:42.436Z,20.34
2022-08-21T07:31:46.067Z,20.37
2022-08-21T07:34:48.671Z,20.52
2022-08-21T07:37:51.550Z,20.50
2022-08-21T07:40:56.288Z,20.57
2022-08-21T07:44:00.299Z,20.49
2022-08-21T07:47:03.087Z,20.36
2022-08-21T07:50:07.476Z,20.71
2022-08-21T07:53:10.191Z,20.65
2022-08-21T07:56:13.193Z,21.04
2022-08-21T07:59:15.878Z,22.21
2022-08-21T08:02:26.898Z,22.58
2022-08-21T08:05:31.944Z,24.07
2022-08-21T08:08:34.572Z,24.97
2022-08-21T08:11:39.593Z,25.23
2022-08-21T08:14:42.152Z,24.15
2022-08-21T08:17:44.980Z,24.06
2022-08-21T08:20:47.576Z,23.26
2022-08-21T08:23:50.827Z,23.12
2022-08-21T08:26:55.018Z,23.24
2022-08-21T08:29:58.336Z,23.09
2022-08-21T08:33:01.543Z,22.67
2022-08-21T08:36:08.129Z,22.74
2022-08-21T08:39:11.002Z,23.05
2022-08-21T08:42:33.686Z,23.31
2022-08-21T08:45:40.593Z,23.02
2022-08-21T08:48:57.224Z,23.33
2022-08-21T08:52:49.244Z,23.25
2022-08-21T08:55:54.821Z,22.86
2022-08-21T08:59:02.958Z,23.11
2022-08-21T09:02:08.959Z,23.25
2022-08-21T09:05:23.018Z,23.85
2022-08-21T09:08:58.193Z,24.42
2022-08-21T09:12:17.266Z,24.49
2022-08-21T09:15:38.818Z,24.29
2022-08-21T09:19:03.631Z,24.27
2022-08-21T09:22:47.807Z,23.99
2022-08-21T09:26:02.829Z,24.42
2022-08-21T09:29:07.913Z,24.32
2022-08-21T09:32:24.153Z,23.75
2022-08-21T09:35:55.915Z,25.10
2022-08-21T09:38:58.561Z,24.32
2022-08-21T09:42:05.087Z,25.66
2022-08-21T09:45:19.441Z,25.55
2022-08-21T09:48:27.043Z,24.73
2022-08-21T09:51:37.938Z,24.27
2022-08-21T09:54:41.929Z,25.34
2022-08-21T09:57:50.428Z,24.88
2022-08-21T10:00:59.853Z,25.45
2022-08-21T10:04:09.894Z,25.50
2022-08-21T10:07:15.426Z,24.66
2022-08-21T10:10:29.217Z,24.86
2022-08-21T10:13:41.328Z,25.26
2022-08-21T10:17:09.213Z,25.46
2022-08-21T10:20:18.265Z,25.12
2022-08-21T10:23:47.225Z,25.05
2022-08-21T10:27:17.881Z,25.77
2022-08-21T10:30:37.390Z,26.32
2022-08-21T10:34:09.071Z,25.88
2022-08-21T10:37:34.787Z,26.78
2022-08-21T10:40:45.690Z,26.19
2022-08-21T10:44:29.487Z,27.65
2022-08-21T10:47:38.961Z,27.42
2022-08-21T10:51:19.018Z,28.51
2022-08-21T10:54:40.427Z,26.86
2022-08-21T10:57:58.264Z,27.17
2022-08-21T11:01:13.095Z,26.63
2022-08-21T11:04:50.881Z,26.11
2022-08-21T11:07:59.488Z,25.35
2022-08-21T11:11:46.996Z,25.79
2022-08-21T11:15:29.255Z,25.39
2022-08-21T11:18:37.923Z,24.87
2022-08-21T11:21:43.709Z,25.52
2022-08-21T11:25:17.416Z,25.99
2022-08-21T11:28:43.105Z,25.18
2022-08-21T11:31:58.951Z,25.41
2022-08-21T11:35:19.896Z,25.28
2022-08-21T11:38:36.302Z,25.00
2022-08-21T11:41:47.216Z,24.64
2022-08-21T11:45:11.756Z,24.82
2022-08-21T11:48:23.315Z,24.74
2022-08-21T11:51:35.032Z,24.13
2022-08-21T11:55:05.132Z,24.47
2022-08-21T11:58:08.037Z,24.68
2022-08-21T12:01:33.173Z,25.10
2022-08-21T12:04:46.928Z,24.81
2022-08-21T12:08:12.187Z,24.63
2022-08-21T12:11:17.967Z,24.52
2022-08-21T12:14:20.685Z,24.33
2022-08-21T12:17:35.301Z,24.05
2022-08-21T12:20:58.503Z,24.29
2022-08-21T12:24:04.253Z,24.02
2022-08-21T12:27:41.906Z,23.93
2022-08-21T12:30:46.440Z,23.47
2022-08-21T12:34:02.759Z,23.59
2022-08-21T12:37:41.170Z,23.73
2022-08-21T12:40:53.063Z,23.99
2022-08-21T12:44:08.824Z,23.98
2022-08-21T12:47:18.872Z,24.24
2022-08-21T12:50:32.881Z,23.88
2022-08-21T12:53:47.159Z,24.13
2022-08-21T12:56:59.096Z,23.84
2022-08-21T13:00:14.127Z,24.06
2022-08-21T13:03:17.543Z,23.94
2022-08-21T13:06:21.698Z,24.19
2022-08-21T13:09:30.573Z,23.66
2022-08-21T13:12:34.794Z,23.55
2022-08-21T13:15:40.780Z,23.35
2022-08-21T13:18:59.648Z,23.34
2022-08-21T13:22:03.832Z,23.34
2022-08-21T13:25:30.236Z,23.49
2022-08-21T13:28:37.511Z,23.13
2022-08-21T13:31:43.412Z,22.19
2022-08-21T13:34:46.753Z,21.84
2022-08-21T13:37:57.584Z,21.61
2022-08-21T13:41:05.776Z,21.43
2022-08-21T13:44:32.107Z,21.09
2022-08-21T13:47:35.245Z,20.64
2022-08-21T13:50:40.187Z,20.42
2022-08-21T13:53:53.188Z,20.27
2022-08-21T13:56:56.527Z,20.29
2022-08-21T14:00:26.017Z,20.25
2022-08-21T14:03:34.684Z,20.25
2022-08-21T14:06:39.107Z,20.27
2022-08-21T14:09:44.286Z,20.32
2022-08-21T14:12:57.118Z,20.54
2022-08-21T14:16:02.518Z,20.63
2022-08-21T14:19:04.967Z,20.86
2022-08-21T14:22:44.800Z,21.01
2022-08-21T14:25:47.360Z,21.24
2022-08-21T14:28:50.370Z,21.39
2022-08-21T14:31:59.202Z,21.45
2022-08-21T14:35:02.452Z,21.26
2022-08-21T14:38:20.765Z,21.32
2022-08-21T14:41:27.118Z,21.58
2022-08-21T14:44:29.822Z,21.50
2022-08-21T14:47:32.686Z,21.61
2022-08-21T14:50:35.325Z,21.74
2022-08-21T14:53:38.524Z,21.79
2022-08-21T14:56:41.169Z,21.64
2022-08-21T14:59:44.508Z,21.73
2022-08-21T15:02:47.522Z,21.81
2022-08-21T15:05:52.725Z,21.50
2022-08-21T15:08:55.434Z,21.15
2022-08-21T15:12:01.643Z,21.12
2022-08-21T15:15:06.824Z,21.10
2022-08-21T15:18:10.247Z,20.99
2022-08-21T15:21:12.869Z,20.91
2022-08-21T15:24:16.127Z,20.91
2022-08-21T15:27:19.742Z,20.81
2022-08-21T15:30:22.496Z,20.86
2022-08-21T15:33:25.146Z,20.77
2022-08-21T15:36:28.072Z,20.80
2022-08-21T15:39:31.495Z,20.85
2022-08-21T15:42:41.688Z,20.92
2022-08-21T15:45:44.295Z,20.90
2022-08-21T15:48:47.549Z,20.82
2022-08-21T15:51:50.863Z,20.69
2022-08-21T15:54:53.780Z,20.55
2022-08-21T15:57:57.877Z,20.36
2022-08-21T16:01:02.489Z,20.26
2022-08-21T16:04:07.122Z,20.14
2022-08-21T16:07:09.977Z,20.08
2022-08-21T16:10:15.257Z,19.99
2022-08-21T16:13:24.697Z,19.85
2022-08-21T16:16:29.630Z,19.72
2022-08-21T16:19:35.751Z,19.75
2022-08-21T16:22:44.873Z,19.68
2022-08-21T16:25:48.113Z,19.62
2022-08-21T16:28:55.207Z,19.63
2022-08-21T16:31:58.648Z,19.46
2022-08-21T16:35:03.626Z,19.36
2022-08-21T16:38:06.152Z,19.27
2022-08-21T16:41:14.441Z,19.21
2022-08-21T16:44:17.248Z,19.26
2022-08-21T16:47:26.433Z,19.19
2022-08-21T16:50:30.333Z,19.15
2022-08-21T16:53:34.312Z,19.15
2022-08-21T16:56:42.762Z,19.12
2022-08-21T16:59:48.137Z,19.14
2022-08-21T17:02:54.646Z,19.14
2022-08-21T17:05:57.556Z,19.01
2022-08-21T17:09:01.259Z,19.04
2022-08-21T17:12:05.974Z,19.06
2022-08-21T17:15:24.947Z,19.05
2022-08-21T17:18:30.178Z,19.00
2022-08-21T17:21:35.497Z,18.96
2022-08-21T17:24:38.698Z,18.92
2022-08-21T17:27:44.645Z,18.90
2022-08-21T17:30:47.727Z,18.94
2022-08-21T17:33:53.185Z,18.89
2022-08-21T17:36:56.036Z,18.85
2022-08-21T17:39:58.737Z,18.82
2022-08-21T17:43:03.779Z,18.82
2022-08-21T17:46:07.465Z,18.81
2022-08-21T17:49:11.781Z,18.78
2022-08-21T17:52:14.354Z,18.80
2022-08-21T17:55:17.407Z,18.81
2022-08-21T17:58:19.937Z,18.76
2022-08-21T18:01:22.836Z,18.77
2022-08-21T18:04:25.680Z,18.76
2022-08-21T18:07:32.660Z,18.74
2022-08-21T18:10:36.549Z,18.74
2022-08-21T18:13:42.881Z,18.73
2022-08-21T18:16:47.140Z,18.69
2022-08-21T18:19:50.306Z,18.72
2022-08-21T18:22:53.139Z,18.72
2022-08-21T18:26:01.674Z,18.67
2022-08-21T18:29:12.398Z,18.66
2022-08-21T18:32:34.958Z,18.70
2022-08-21T18:35:57.738Z,18.64
2022-08-21T18:39:38.124Z,18.63
2022-08-21T18:43:03.989Z,18.60
2022-08-21T18:46:06.607Z,18.61
2022-08-21T18:49:29.420Z,18.59
2022-08-21T18:52:32.473Z,18.59
2022-08-21T18:55:37.752Z,18.60
2022-08-21T18:58:44.896Z,18.59
2022-08-21T19:01:48.210Z,18.65
2022-08-21T19:04:51.494Z,18.56
2022-08-21T19:07:55.278Z,18.55
2022-08-21T19:11:02.683Z,18.58
2022-08-21T19:14:13.070Z,18.54
2022-08-21T19:17:19.275Z,18.52
2022-08-21T19:20:26.862Z,18.49
2022-08-21T19:23:30.271Z,18.44
2022-08-21T19:26:34.942Z,18.50
2022-08-21T19:29:39.712Z,18.47
2022-08-21T19:32:45.798Z,18.39
2022-08-21T19:35:52.499Z,18.37
2022-08-21T19:38:55.919Z,18.45
2022-08-21T19:41:59.695Z,18.37
2022-08-21T19:45:06.047Z,18.37
2022-08-21T19:48:09.566Z,18.34
2022-08-21T19:51:12.877Z,18.32
2022-08-21T19:54:25.008Z,18.30
2022-08-21T19:57:29.755Z,18.32
2022-08-21T20:00:32.411Z,18.25
2022-08-21T20:03:36.617Z,18.28
2022-08-21T20:06:40.534Z,18.26
2022-08-21T20:09:45.280Z,18.25
2022-08-21T20:12:53.098Z,18.27
2022-08-21T20:15:56.113Z,18.20
2022-08-21T20:19:00.937Z,18.24
2022-08-21T20:22:04.529Z,18.24
2022-08-21T20:25:08.321Z,18.23
2022-08-21T20:28:14.240Z,18.17
2022-08-21T20:31:17.664Z,18.18
2022-08-21T20:34:22.486Z,18.21
2022-08-21T20:40:54.261Z,18.19
2022-08-21T20:43:58.396Z,18.12
2022-08-21T20:47:08.514Z,18.13
2022-08-21T20:50:17.798Z,18.10
2022-08-21T20:53:45.153Z,18.07
2022-08-21T20:57:16.992Z,18.10
2022-08-21T21:00:26.132Z,18.05
2022-08-21T21:03:35.126Z,17.98
2022-08-21T21:06:39.112Z,17.96
2022-08-21T21:09:47.483Z,17.93
2022-08-21T21:12:53.970Z,17.93
2022-08-21T21:16:04.440Z,17.92
2022-08-21T21:19:28.024Z,17.93
2022-08-21T21:22:40.267Z,17.87
2022-08-21T21:25:53.884Z,17.83
2022-08-21T21:29:10.639Z,17.77
2022-08-21T21:32:18.044Z,17.76
2022-08-21T21:35:38.362Z,17.75
2022-08-21T21:38:57.985Z,17.75
2022-08-21T21:42:30.268Z,17.69
2022-08-21T21:45:49.880Z,17.67
2022-08-21T21:49:19.672Z,17.63
2022-08-21T21:52:31.682Z,17.61
2022-08-21T21:55:53.109Z,17.59
2022-08-21T21:59:15.437Z,17.67
2022-08-21T22:02:40.715Z,17.64
2022-08-21T22:05:51.733Z,17.71
2022-08-21T22:09:09.294Z,17.64
2022-08-21T22:12:23.050Z,17.71
2022-08-21T22:15:28.084Z,17.68
2022-08-21T22:18:35.989Z,17.72
2022-08-21T22:21:41.124Z,17.69
2022-08-21T22:24:49.359Z,17.68
2022-08-21T22:28:04.824Z,17.68
2022-08-21T22:31:19.098Z,17.71
2022-08-21T22:34:23.557Z,17.65
2022-08-21T22:37:37.884Z,17.57
2022-08-21T22:40:40.613Z,17.45
2022-08-21T22:43:50.977Z,17.39
2022-08-21T22:46:59.569Z,17.33
2022-08-21T22:50:24.744Z,17.29
2022-08-21T22:53:33.431Z,17.27
2022-08-21T22:56:46.303Z,17.27
2022-08-21T23:00:14.886Z,17.31
2022-08-21T23:03:54.097Z,17.28
2022-08-21T23:07:02.670Z,17.22
2022-08-21T23:10:32.930Z,17.33
2022-08-21T23:13:41.999Z,17.30
2022-08-21T23:16:55.390Z,17.19
2022-08-21T23:20:26.005Z,17.22
2022-08-21T23:23:34.955Z,17.22
2022-08-21T23:27:07.814Z,17.25
2022-08-21T23:30:19.025Z,17.28
2022-08-21T23:33:30.500Z,17.24
2022-08-21T23:37:11.590Z,17.29
2022-08-21T23:40:47.057Z,17.23
2022-08-21T23:44:29.541Z,17.25
2022-08-21T23:48:07.109Z,17.25
2022-08-21T23:51:16.991Z,17.22
2022-08-21T23:54:27.069Z,17.22
2022-08-21T23:57:53.618Z,17.30
